Time;durP1;ratioP1;P1;durP2;ratioP2;P2;SDS_P1;SDS_P2;PMS_P1;PMS_P2;Temp;Humidity;BMP_temperature;BMP_pressure;BME280_temperature;BME280_humidity;BME280_pressure;Samples;Min_cycle;Max_cycle;Signal;HPM_P1;HPM_P2
2022/12/07 00:01:19;;;;;;;7.70;4.95;;;;;;;0.34;88.26;100869.44;5113299;28;20035;-72
2022/12/07 00:03:46;;;;;;;8.90;5.10;;;;;;;0.55;87.77;100882.63;5101189;28;20401;-72
2022/12/07 00:06:16;;;;;;;11.88;5.47;;;;;;;0.33;87.63;100829.84;5113384;28;20101;-72
2022/12/07 00:08:42;;;;;;;8.43;5.15;;;;;;;0.52;87.39;100858.22;5109438;28;20042;-72
2022/12/07 00:11:13;;;;;;;10.27;5.28;;;;;;;0.47;87.96;100863.94;5121327;27;20032;-72
2022/12/07 00:13:40;;;;;;;9.32;5.22;;;;;;;0.45;88.15;100865.84;5115964;28;20398;-72
2022/12/07 00:16:15;;;;;;;9.90;5.72;;;;;;;0.41;88.56;100861.81;5103699;28;20051;-72
2022/12/07 00:18:41;;;;;;;11.65;5.40;;;;;;;0.31;88.20;100832.63;5106383;28;20028;-72
2022/12/07 00:21:12;;;;;;;10.95;4.80;;;;;;;0.44;88.26;100849.13;5110366;28;20421;-72
2022/12/07 00:23:38;;;;;;;9.75;4.72;;;;;;;0.44;88.52;100854.44;5116743;28;20090;-72
2022/12/07 00:26:10;;;;;;;8.07;4.53;;;;;;;0.46;88.52;100855.16;5084999;28;20035;-72
2022/12/07 00:28:35;;;;;;;9.80;4.35;;;;;;;0.51;88.42;100851.25;5110024;28;20028;-72
2022/12/07 00:31:10;;;;;;;7.07;4.07;;;;;;;0.54;88.62;100854.47;5092833;28;20439;-72
2022/12/07 00:33:36;;;;;;;9.27;3.95;;;;;;;0.38;89.35;100847.00;5100599;28;20036;-72
2022/12/07 00:36:05;;;;;;;7.85;4.00;;;;;;;0.41;89.60;100840.63;5114346;28;20391;-73
2022/12/07 00:38:32;;;;;;;9.95;3.83;;;;;;;0.53;88.86;100849.28;5105586;28;20055;-73
2022/12/07 00:40:59;;;;;;;9.18;4.28;;;;;;;0.75;87.76;100835.88;5105987;28;20098;-71
2022/12/07 00:43:26;;;;;;;10.45;4.40;;;;;;;0.67;86.97;100822.47;5114448;28;20028;-71
2022/12/07 00:45:52;;;;;;;11.35;5.22;;;;;;;0.80;86.93;100819.59;5101518;27;20393;-73
2022/12/07 00:48:17;;;;;;;10.48;4.97;;;;;;;0.83;87.06;100828.09;5112182;28;20035;-73
2022/12/07 00:50:43;;;;;;;10.90;5.60;;;;;;;0.85;87.00;100828.78;5107474;28;20035;-72
2022/12/07 00:53:08;;;;;;;8.52;5.00;;;;;;;0.72;87.50;100825.53;5104912;28;20035;-73
2022/12/07 00:55:34;;;;;;;12.10;5.40;;;;;;;0.62;87.62;100812.25;5113469;28;20095;-73
2022/12/07 00:58:00;;;;;;;9.30;5.32;;;;;;;0.70;87.80;100835.44;5102367;28;20028;-73
2022/12/07 01:00:25;;;;;;;10.70;5.72;;;;;;;0.69;87.89;100839.03;5109097;28;20055;-73
2022/12/07 01:02:51;;;;;;;8.85;5.43;;;;;;;0.40;89.27;100831.84;5108087;28;20040;-73
2022/12/07 01:05:17;;;;;;;10.18;5.72;;;;;;;0.40;90.01;100834.50;5103170;28;20559;-73
2022/12/07 01:07:42;;;;;;;8.45;5.65;;;;;;;0.60;89.25;100837.22;5096098;28;20047;-73
2022/12/07 01:10:08;;;;;;;10.10;5.60;;;;;;;0.52;89.06;100821.16;5085090;28;20474;-73
2022/12/07 01:12:34;;;;;;;14.63;6.15;;;;;;;0.69;88.64;100831.09;5107989;28;20047;-73
2022/12/07 01:14:59;;;;;;;9.73;5.68;;;;;;;0.68;88.81;100837.38;5109020;28;20119;-73
2022/12/07 01:17:24;;;;;;;13.48;6.03;;;;;;;0.82;88.12;100839.66;5102009;28;20498;-73
2022/12/07 01:19:50;;;;;;;10.65;5.97;;;;;;;0.56;88.26;100782.84;5114489;28;20039;-73
2022/12/07 01:22:15;;;;;;;11.73;6.45;;;;;;;0.92;87.57;100829.06;5103177;28;20031;-73
2022/12/07 01:24:41;;;;;;;11.98;6.32;;;;;;;0.96;87.49;100819.03;5108523;28;20028;-73
2022/12/07 01:27:06;;;;;;;10.93;5.90;;;;;;;1.05;87.33;100828.81;5092620;28;20031;-73
2022/12/07 01:29:32;;;;;;;12.02;5.53;;;;;;;1.01;87.28;100822.13;5098199;28;20048;-73
2022/12/07 01:31:57;;;;;;;9.70;5.57;;;;;;;0.89;87.27;100811.66;5111216;28;20035;-72
2022/12/07 01:34:23;;;;;;;11.73;5.88;;;;;;;0.89;87.13;100789.59;5101837;28;20455;-73
2022/12/07 01:36:48;;;;;;;9.55;5.72;;;;;;;0.99;87.55;100810.81;5103796;28;20498;-73
2022/12/07 01:39:13;;;;;;;9.65;5.68;;;;;;;0.76;87.88;100799.63;5109638;28;20047;-73
2022/12/07 01:41:42;;;;;;;12.27;5.35;;;;;;;0.71;87.91;100781.50;5082746;28;20027;-74
2022/12/07 01:44:17;;;;;;;11.10;5.65;;;;;;;0.88;88.06;100801.19;5111203;28;20062;-72
2022/12/07 01:46:57;;;;;;;12.40;5.03;;;;;;;0.88;87.92;100798.53;5107625;28;20027;-73
2022/12/07 01:49:42;;;;;;;9.30;5.50;;;;;;;0.85;88.05;100789.03;5102931;28;20040;-73
2022/12/07 01:52:19;;;;;;;;;;;;;;;0.78;88.40;100793.22;5088071;28;20027;-73
2022/12/07 01:54:47;;;;;;;8.75;4.88;;;;;;;0.70;88.55;100782.47;5105977;28;20286;-73
2022/12/07 01:57:15;;;;;;;9.50;5.20;;;;;;;0.80;88.38;100795.75;5110762;28;20035;-73
2022/12/07 01:59:43;;;;;;;8.95;5.10;;;;;;;0.67;88.58;100775.63;5099487;28;20063;-73
2022/12/07 02:02:18;;;;;;;8.50;4.70;;;;;;;0.76;88.59;100797.81;5112942;28;20060;-73
2022/12/07 02:04:45;;;;;;;7.97;4.57;;;;;;;0.60;89.32;100794.88;5107761;28;20080;-73
2022/12/07 02:07:10;;;;;;;8.50;4.65;;;;;;;0.50;89.34;100784.25;5086129;28;20036;-73
2022/12/07 02:09:35;;;;;;;10.00;4.78;;;;;;;0.49;89.21;100755.22;5114086;28;20043;-73
2022/12/07 02:12:02;;;;;;;13.85;4.47;;;;;;;0.28;89.99;100748.22;5100232;28;20466;-72
2022/12/07 02:14:27;;;;;;;10.25;4.70;;;;;;;0.51;89.69;100758.59;5108373;28;20024;-72
2022/12/07 02:17:18;;;;;;;9.10;4.30;;;;;;;0.48;89.89;100775.59;5107778;28;20540;-73
2022/12/07 02:20:15;;;;;;;9.07;4.32;;;;;;;0.53;89.80;100775.16;5100772;28;20031;-73
2022/12/07 02:23:07;;;;;;;8.10;4.07;;;;;;;0.33;89.82;100746.00;5072107;28;20105;-73
2022/12/07 02:25:53;;;;;;;15.27;4.80;;;;;;;0.61;89.74;100783.28;5088456;28;20040;-73
2022/12/07 02:28:18;;;;;;;9.50;4.10;;;;;;;0.66;89.25;100773.13;5068451;28;20040;-73
2022/12/07 02:30:48;;;;;;;8.88;4.38;;;;;;;0.32;89.31;100733.72;5089149;28;20395;-73
2022/12/07 02:33:23;;;;;;;10.15;4.68;;;;;;;0.69;88.95;100778.97;5092932;28;20043;-73
2022/12/07 02:36:17;;;;;;;8.65;4.05;;;;;;;0.66;89.22;100770.47;5064770;28;20027;-73
2022/12/07 02:38:45;;;;;;;7.20;4.20;;;;;;;0.73;88.78;100774.28;5071750;28;20407;-73
2022/12/07 02:41:16;;;;;;;7.45;4.07;;;;;;;0.76;88.63;100763.38;5091692;28;20065;-73
2022/12/07 02:43:53;;;;;;;11.55;4.40;;;;;;;0.89;88.61;100773.72;5064793;28;20047;-73
2022/12/07 02:46:37;;;;;;;6.97;3.97;;;;;;;0.98;88.23;100762.31;5092024;28;20063;-73
2022/12/07 02:49:03;;;;;;;9.95;4.40;;;;;;;1.08;87.55;100767.59;5091074;28;20055;-73
2022/12/07 02:51:33;;;;;;;6.30;3.90;;;;;;;1.00;87.49;100762.19;5065493;28;20459;-72
2022/12/07 02:53:59;;;;;;;6.93;4.18;;;;;;;0.90;87.68;100744.47;5095372;27;20397;-72
2022/12/07 02:56:43;;;;;;;8.52;4.22;;;;;;;1.06;88.18;100761.59;5112079;28;20024;-72
2022/12/07 02:59:33;;;;;;;8.15;4.55;;;;;;;1.00;88.01;100754.22;5112481;28;20045;-72
2022/12/07 03:02:43;;;;;;;6.68;3.83;;;;;;;0.93;88.29;100749.47;5086414;28;20039;-72
2022/12/07 03:05:17;;;;;;;9.15;4.07;;;;;;;0.88;88.81;100740.25;5078097;28;20474;-72
2022/12/07 03:08:01;;;;;;;5.65;3.70;;;;;;;0.78;89.53;100740.25;5117381;28;20031;-72
2022/12/07 03:10:51;;;;;;;6.47;4.07;;;;;;;0.85;89.30;100740.53;5107606;28;20023;-72
2022/12/07 03:13:35;;;;;;;7.45;3.83;;;;;;;0.74;90.31;100736.22;5104453;28;20031;-72
2022/12/07 03:16:04;;;;;;;7.45;4.00;;;;;;;0.75;90.72;100727.28;5087890;28;20015;-72
2022/12/07 03:18:37;;;;;;;6.00;3.50;;;;;;;0.85;90.89;100735.25;5110935;28;20036;-72
2022/12/07 03:21:08;;;;;;;8.80;3.78;;;;;;;0.87;90.95;100723.53;5111220;28;20123;-72
2022/12/07 03:23:37;;;;;;;6.13;3.67;;;;;;;0.87;90.92;100712.94;5102371;28;20027;-72
2022/12/07 03:26:04;;;;;;;7.03;3.53;;;;;;;0.69;92.13;100704.00;5115517;28;20035;-72
2022/12/07 03:28:36;;;;;;;8.80;4.15;;;;;;;0.77;92.61;100727.16;5106411;28;20063;-73
2022/12/07 03:31:18;;;;;;;7.30;3.63;;;;;;;0.51;93.72;100700.34;5106213;28;20052;-73
2022/12/07 03:34:10;;;;;;;6.60;4.05;;;;;;;0.83;93.09;100723.94;5116320;28;20106;-71
2022/12/07 03:36:42;;;;;;;6.63;4.10;;;;;;;0.84;93.80;100723.81;5105955;28;20448;-71
2022/12/07 03:39:25;;;;;;;7.60;3.72;;;;;;;0.77;94.17;100725.34;5126501;28;20016;-72
2022/12/07 03:41:52;;;;;;;6.35;3.67;;;;;;;0.94;93.77;100729.94;5125757;28;20440;-72
2022/12/07 03:44:18;;;;;;;6.63;4.15;;;;;;;0.87;94.20;100726.19;5104289;28;20031;-72
2022/12/07 03:46:49;;;;;;;7.20;3.40;;;;;;;0.40;95.24;100680.97;5104380;28;20516;-72
2022/12/07 03:49:26;;;;;;;13.45;4.22;;;;;;;0.77;95.75;100722.69;5112588;28;20383;-72
2022/12/07 03:52:02;;;;;;;7.88;4.25;;;;;;;0.96;95.18;100719.22;5103565;28;20060;-72
2022/12/07 03:54:41;;;;;;;9.93;4.05;;;;;;;1.04;94.52;100713.22;5109987;28;20036;-72
2022/12/07 03:57:09;;;;;;;9.57;4.25;;;;;;;1.07;94.50;100720.91;5112324;28;20024;-72
2022/12/07 03:59:35;;;;;;;8.15;3.78;;;;;;;0.82;95.78;100701.91;5101169;28;20115;-72
2022/12/07 04:02:04;;;;;;;8.35;4.25;;;;;;;0.84;96.11;100710.56;5115793;28;20107;-72
2022/12/07 04:04:29;;;;;;;10.43;3.70;;;;;;;0.97;96.02;100706.81;5106466;28;20027;-72
2022/12/07 04:06:54;;;;;;;9.98;4.13;;;;;;;0.86;95.92;100674.19;5108072;28;20550;-72
2022/12/07 04:09:20;;;;;;;7.15;3.88;;;;;;;0.82;97.20;100678.06;5112693;28;20039;-72
2022/12/07 04:11:46;;;;;;;7.38;3.47;;;;;;;1.04;97.35;100705.28;5100890;28;20024;-72
2022/12/07 04:14:20;;;;;;;9.82;3.90;;;;;;;1.03;97.82;100703.63;5113911;28;20050;-72
2022/12/07 04:16:56;;;;;;;12.48;4.00;;;;;;;0.95;98.30;100688.41;5109243;28;20023;-72
2022/12/07 04:19:27;;;;;;;8.48;3.25;;;;;;;1.09;98.43;100706.53;5104108;27;20402;-72
2022/12/07 04:21:57;;;;;;;8.55;3.88;;;;;;;1.48;96.92;100708.28;5115410;28;20397;-72
2022/12/07 04:24:23;;;;;;;7.43;3.47;;;;;;;1.14;98.28;100691.03;5105733;28;20034;-72
2022/12/07 04:26:49;;;;;;;7.13;3.03;;;;;;;1.10;99.22;100702.06;5108570;28;20016;-72
2022/12/07 04:29:16;;;;;;;7.45;3.10;;;;;;;1.13;99.52;100699.97;5112695;28;20110;-72
2022/12/07 04:31:41;;;;;;;6.57;3.17;;;;;;;1.27;99.15;100704.00;5100906;28;20075;-72
2022/12/07 04:34:07;;;;;;;8.25;3.22;;;;;;;1.38;99.37;100701.19;5130378;27;20042;-72
2022/12/07 04:36:33;;;;;;;8.20;3.40;;;;;;;1.32;99.19;100706.22;5105809;28;20023;-73
2022/12/07 04:38:58;;;;;;;7.03;3.10;;;;;;;1.31;99.40;100700.09;5109186;28;20031;-72
2022/12/07 04:41:28;;;;;;;6.93;3.45;;;;;;;1.45;99.02;100705.91;5102761;28;20115;-72
2022/12/07 04:44:00;;;;;;;7.55;3.20;;;;;;;1.54;98.58;100705.06;5115098;28;20047;-72
2022/12/07 04:46:29;;;;;;;5.65;2.70;;;;;;;1.31;100.00;100689.47;5106538;28;20051;-72
2022/12/07 04:48:55;;;;;;;6.65;3.20;;;;;;;1.15;100.00;100668.03;5106787;28;20036;-72
2022/12/07 04:51:25;;;;;;;5.70;2.83;;;;;;;1.40;99.62;100703.72;5113354;28;20049;-72
2022/12/07 04:53:51;;;;;;;5.30;2.60;;;;;;;1.40;100.00;100699.25;5101896;27;20032;-73
2022/12/07 04:56:17;;;;;;;8.45;2.65;;;;;;;1.30;100.00;100698.41;5112980;28;20073;-71
2022/12/07 04:58:44;;;;;;;6.75;3.00;;;;;;;1.24;100.00;100667.19;5107452;28;20035;-71
2022/12/07 05:01:10;;;;;;;9.27;3.17;;;;;;;1.30;100.00;100677.22;5104505;28;20636;-72
2022/12/07 05:03:36;;;;;;;7.82;2.58;;;;;;;1.51;100.00;100700.06;5115015;28;20023;-71
2022/12/07 05:06:03;;;;;;;7.35;2.78;;;;;;;1.59;100.00;100702.81;5102544;28;20032;-74
2022/12/07 05:08:28;;;;;;;8.85;3.45;;;;;;;1.56;100.00;100703.13;5111957;28;20042;-73
2022/12/07 05:10:54;;;;;;;8.07;2.58;;;;;;;1.26;100.00;100659.06;5108918;28;20114;-73
2022/12/07 05:13:20;;;;;;;7.50;2.92;;;;;;;1.58;100.00;100698.50;5103209;28;20035;-73
2022/12/07 05:15:47;;;;;;;7.07;2.65;;;;;;;1.36;100.00;100697.03;5097088;28;20401;-72
2022/12/07 05:18:12;;;;;;;7.95;2.42;;;;;;;1.31;100.00;100686.81;5102486;28;20077;-73
2022/12/07 05:20:39;;;;;;;6.45;2.67;;;;;;;1.47;100.00;100682.75;5108960;28;20096;-73
2022/12/07 05:23:04;;;;;;;6.65;2.28;;;;;;;1.55;100.00;100690.81;5111614;28;20036;-71
2022/12/07 05:25:30;;;;;;;4.15;2.30;;;;;;;1.33;99.78;100661.03;5084768;28;20054;-71
2022/12/07 05:27:56;;;;;;;6.45;2.40;;;;;;;1.63;99.08;100691.78;5115179;28;20032;-74
2022/12/07 05:30:22;;;;;;;5.57;2.35;;;;;;;1.49;99.18;100689.59;5104906;28;20042;-73
2022/12/07 05:32:48;;;;;;;6.10;2.67;;;;;;;1.12;100.00;100653.22;5090344;28;20036;-74
2022/12/07 05:35:13;;;;;;;5.60;2.20;;;;;;;1.14;100.00;100663.69;5110620;28;20520;-71
2022/12/07 05:37:39;;;;;;;7.25;2.58;;;;;;;1.41;99.83;100682.34;5083633;28;20398;-71
2022/12/07 05:40:05;;;;;;;5.88;2.10;;;;;;;1.31;99.98;100665.63;5113494;28;20028;-74
2022/12/07 05:42:31;;;;;;;8.25;2.85;;;;;;;1.51;99.00;100689.44;5104968;28;20028;-72
2022/12/07 05:44:56;;;;;;;5.75;2.83;;;;;;;1.53;98.77;100687.50;5108340;28;20031;-71
2022/12/07 05:47:21;;;;;;;5.72;2.22;;;;;;;1.46;98.58;100686.38;5112315;28;20024;-72
2022/12/07 05:49:47;;;;;;;7.57;2.95;;;;;;;1.42;98.33;100672.56;5101561;28;20044;-71
2022/12/07 05:52:12;;;;;;;4.68;2.40;;;;;;;1.56;98.44;100684.56;5112519;28;20394;-73
2022/12/07 05:54:38;;;;;;;8.25;2.63;;;;;;;1.56;97.59;100673.97;5106419;28;20028;-73
2022/12/07 05:57:03;;;;;;;8.38;2.75;;;;;;;1.44;97.41;100646.75;5105091;28;20032;-71
2022/12/07 05:59:29;;;;;;;6.15;2.45;;;;;;;1.52;97.83;100667.25;5111249;28;20051;-73
2022/12/07 06:01:56;;;;;;;5.47;2.20;;;;;;;1.62;97.64;100687.47;5101602;28;20020;-72
2022/12/07 06:04:23;;;;;;;5.97;2.67;;;;;;;1.54;98.36;100683.84;5111951;28;20410;-72
2022/12/07 06:06:48;;;;;;;6.57;2.50;;;;;;;1.58;98.01;100680.75;5105263;28;20054;-72
2022/12/07 06:09:14;;;;;;;6.70;2.42;;;;;;;1.68;97.54;100678.09;5101610;28;20020;-71
2022/12/07 06:14:24;;;;;;;8.15;2.53;;;;;;;1.78;96.61;100686.00;5103436;28;20043;-74
2022/12/07 06:16:50;;;;;;;5.68;2.47;;;;;;;1.73;97.05;100678.50;5106698;28;20028;-71
2022/12/07 06:19:15;;;;;;;8.15;2.42;;;;;;;1.77;96.74;100685.19;5091963;28;20035;-74
2022/12/07 06:21:41;;;;;;;6.65;2.40;;;;;;;1.74;96.79;100685.47;5083503;28;20047;-74
2022/12/07 06:24:08;;;;;;;5.68;2.58;;;;;;;1.71;96.70;100676.97;5095432;28;20031;-69
2022/12/07 06:26:34;;;;;;;5.00;2.60;;;;;;;1.70;96.99;100683.25;5104675;28;20035;-72
2022/12/07 06:28:59;;;;;;;5.78;2.53;;;;;;;1.85;96.43;100685.31;5105496;28;20057;-72
2022/12/07 06:31:25;;;;;;;5.22;2.13;;;;;;;1.84;96.34;100686.28;5113480;28;20070;-72
2022/12/07 06:33:51;;;;;;;8.07;2.80;;;;;;;1.91;96.15;100685.69;5082844;28;20078;-72
2022/12/07 06:36:16;;;;;;;4.05;1.90;;;;;;;1.73;96.77;100681.16;5112644;28;20024;-72
2022/12/07 06:38:42;;;;;;;5.15;1.98;;;;;;;1.72;96.95;100681.28;5105838;28;20031;-72
2022/12/07 06:41:07;;;;;;;4.63;1.63;;;;;;;1.83;96.86;100691.72;5104188;28;20039;-72
2022/12/07 06:43:33;;;;;;;4.88;1.80;;;;;;;1.97;96.13;100695.72;5113147;28;20122;-72
2022/12/07 06:45:59;;;;;;;5.30;1.90;;;;;;;1.82;96.36;100672.34;5101259;28;20023;-72
2022/12/07 06:48:24;;;;;;;4.35;1.90;;;;;;;1.98;96.17;100697.38;5111534;28;20096;-72
2022/12/07 06:50:50;;;;;;;4.20;1.73;;;;;;;1.80;97.02;100690.19;5108227;28;20107;-72
2022/12/07 06:53:15;;;;;;;3.60;1.50;;;;;;;1.78;97.39;100697.47;5103245;28;20107;-70
2022/12/07 06:55:42;;;;;;;4.88;1.88;;;;;;;1.87;96.82;100685.16;5112605;28;20486;-72
2022/12/07 06:58:08;;;;;;;4.55;1.70;;;;;;;1.79;96.32;100662.00;5100251;28;20054;-72
2022/12/07 07:00:34;;;;;;;3.30;1.70;;;;;;;1.97;96.24;100695.72;5108979;28;20486;-72
2022/12/07 07:03:00;;;;;;;3.63;1.88;;;;;;;1.95;96.18;100695.03;5108930;28;20090;-72
2022/12/07 07:05:26;;;;;;;3.75;1.40;;;;;;;1.88;97.19;100692.94;5084581;28;20039;-72
2022/12/07 07:07:51;;;;;;;2.90;1.50;;;;;;;1.85;97.23;100698.56;5116775;28;20039;-71
2022/12/07 07:10:17;;;;;;;4.20;1.55;;;;;;;1.73;97.25;100667.88;5088312;28;20043;-72
2022/12/07 07:12:42;;;;;;;3.22;1.42;;;;;;;1.88;96.73;100687.63;5111913;28;20110;-72
2022/12/07 07:15:09;;;;;;;2.58;1.50;;;;;;;1.88;97.23;100697.44;5113301;28;20031;-72
2022/12/07 07:17:34;;;;;;;3.90;1.20;;;;;;;1.82;96.56;100695.34;5103747;28;20410;-72
2022/12/07 07:20:00;;;;;;;3.70;1.52;;;;;;;1.70;97.78;100692.06;5116441;28;20024;-72
2022/12/07 07:22:25;;;;;;;4.45;1.20;;;;;;;1.90;96.85;100706.09;5107460;28;20034;-72
2022/12/07 07:24:51;;;;;;;1.92;1.20;;;;;;;1.68;98.24;100701.97;5113172;28;20043;-72
2022/12/07 07:27:17;;;;;;;2.30;1.25;;;;;;;1.74;98.24;100705.84;5096655;28;20038;-72
2022/12/07 07:29:42;;;;;;;3.97;1.10;;;;;;;1.98;96.82;100708.00;5102437;28;20036;-72
2022/12/07 07:32:07;;;;;;;3.63;1.10;;;;;;;2.00;96.08;100706.88;5117002;28;20063;-72
2022/12/07 07:34:33;;;;;;;3.83;0.80;;;;;;;1.73;97.40;100681.16;5108679;28;20035;-72
2022/12/07 07:36:59;;;;;;;5.40;0.95;;;;;;;1.76;98.10;100706.56;5110087;28;20102;-72
2022/12/07 07:39:24;;;;;;;2.17;1.10;;;;;;;1.65;98.38;100704.91;5115674;28;20035;-72
2022/12/07 07:41:49;;;;;;;1.45;0.50;;;;;;;1.59;98.17;100714.28;5104346;28;20061;-72
2022/12/07 07:44:15;;;;;;;2.13;0.47;;;;;;;1.65;97.83;100719.00;5114495;28;20039;-72
2022/12/07 07:46:40;;;;;;;1.35;0.50;;;;;;;1.61;97.52;100720.25;5108965;28;20032;-72
2022/12/07 07:49:06;;;;;;;2.47;0.50;;;;;;;1.65;97.92;100724.28;5108341;28;20126;-72
2022/12/07 07:51:32;;;;;;;1.45;0.52;;;;;;;1.58;97.61;100728.50;5115582;28;20457;-72
2022/12/07 07:53:57;;;;;;;1.35;0.40;;;;;;;1.38;97.86;100695.06;5086421;28;20131;-72
2022/12/07 07:56:23;;;;;;;1.67;0.40;;;;;;;1.58;97.18;100725.84;5113592;28;20054;-72
2022/12/07 07:58:52;;;;;;;1.20;0.57;;;;;;;1.33;97.62;100713.22;5123503;28;20044;-74
2022/12/07 08:01:19;;;;;;;1.77;0.40;;;;;;;1.56;96.68;100719.03;5107419;28;20056;-74
2022/12/07 08:03:46;;;;;;;0.98;0.40;;;;;;;1.29;96.42;100670.25;5102551;28;20122;-72
2022/12/07 08:06:11;;;;;;;1.08;0.63;;;;;;;1.41;96.36;100716.81;5103434;28;20032;-72
2022/12/07 08:08:37;;;;;;;1.45;0.60;;;;;;;1.43;96.46;100713.19;5107627;28;20042;-72
2022/12/07 08:11:07;;;;;;;1.80;0.50;;;;;;;1.48;95.45;100713.59;5110983;28;20080;-72
2022/12/07 08:13:32;;;;;;;1.23;0.35;;;;;;;1.47;95.90;100722.53;5102656;28;20070;-72
2022/12/07 08:16:02;;;;;;;1.10;0.43;;;;;;;1.45;95.58;100722.66;5114779;28;20490;-72
2022/12/07 08:18:28;;;;;;;1.23;0.40;;;;;;;1.49;95.19;100723.22;5104919;28;20028;-72
2022/12/07 08:21:00;;;;;;;1.15;0.47;;;;;;;1.36;95.14;100716.41;5108853;28;20036;-72
2022/12/07 08:23:26;;;;;;;1.58;0.45;;;;;;;1.54;94.89;100713.84;5113345;28;20028;-72
2022/12/07 08:25:51;;;;;;;1.73;0.50;;;;;;;1.35;95.08;100701.47;5101169;28;20403;-72
2022/12/07 08:28:17;;;;;;;1.83;0.47;;;;;;;1.36;94.53;100704.97;5113108;28;20063;-72
2022/12/07 08:30:42;;;;;;;2.03;0.60;;;;;;;1.46;94.55;100705.78;5106334;28;20031;-72
2022/12/07 08:33:09;;;;;;;3.58;0.52;;;;;;;1.41;95.11;100710.69;5106785;28;20496;-72
2022/12/07 08:35:36;;;;;;;1.52;0.82;;;;;;;1.29;94.23;100683.50;5114701;28;20031;-72
2022/12/07 08:38:02;;;;;;;1.90;0.60;;;;;;;1.44;94.57;100715.69;5102753;28;20031;-72
2022/12/07 08:40:28;;;;;;;1.58;0.65;;;;;;;1.48;94.67;100708.28;5111410;28;20115;-72
2022/12/07 08:42:54;;;;;;;1.77;0.60;;;;;;;1.61;94.24;100711.47;5108501;28;20059;-72
2022/12/07 08:45:21;;;;;;;2.03;0.60;;;;;;;1.67;93.79;100710.06;5104492;28;20045;-72
2022/12/07 08:48:06;;;;;;;3.83;1.50;;;;;;;1.41;94.69;100710.69;5097247;28;20058;-72
2022/12/07 08:50:32;;;;;;;1.20;0.50;;;;;;;1.54;94.35;100718.34;5106346;28;20031;-71
2022/12/07 08:52:59;;;;;;;2.35;0.70;;;;;;;1.43;94.41;100719.34;5107943;28;20036;-72
2022/12/07 08:55:25;;;;;;;3.17;0.70;;;;;;;1.64;93.60;100712.03;5112626;28;20061;-72
2022/12/07 08:57:54;;;;;;;1.65;0.52;;;;;;;1.45;93.83;100687.34;5101127;28;20020;-72
2022/12/07 09:00:20;;;;;;;2.47;0.80;;;;;;;1.38;93.74;100689.75;5112772;28;20185;-72
2022/12/07 09:02:46;;;;;;;2.58;0.90;;;;;;;1.57;93.51;100710.09;5090146;28;20122;-72
2022/12/07 09:05:14;;;;;;;2.20;0.88;;;;;;;1.50;93.91;100714.31;5104791;28;20036;-72
2022/12/07 09:07:41;;;;;;;5.65;0.60;;;;;;;1.31;93.87;100718.63;5115919;28;20051;-72
2022/12/07 09:10:07;;;;;;;2.15;0.40;;;;;;;1.38;94.03;100716.25;5101407;28;20042;-72
2022/12/07 09:12:33;;;;;;;3.65;1.00;;;;;;;1.38;93.55;100719.75;5110185;28;20425;-72
2022/12/07 09:15:00;;;;;;;1.77;0.73;;;;;;;1.40;93.80;100722.28;5108817;28;20055;-71
2022/12/07 09:17:27;;;;;;;1.95;0.68;;;;;;;1.44;93.56;100720.16;5103738;28;20032;-72
2022/12/07 09:19:52;;;;;;;4.03;0.60;;;;;;;1.54;93.45;100726.28;5097309;28;20103;-72
2022/12/07 09:22:17;;;;;;;2.17;1.02;;;;;;;1.50;93.42;100724.91;5086575;28;20119;-72
2022/12/07 09:24:45;;;;;;;1.77;0.43;;;;;;;1.54;93.62;100731.59;5109536;28;20119;-72
2022/12/07 09:27:11;;;;;;;3.60;1.00;;;;;;;1.76;93.16;100722.47;5111857;28;20042;-71
2022/12/07 09:29:37;;;;;;;3.03;1.08;;;;;;;1.61;92.23;100661.91;5101147;28;20036;-72
2022/12/07 09:32:02;;;;;;;2.72;0.70;;;;;;;1.85;91.23;100695.06;5115316;28;20032;-71
2022/12/07 09:34:31;;;;;;;3.33;0.70;;;;;;;1.76;91.16;100678.22;5087243;28;20034;-71
2022/12/07 09:36:56;;;;;;;2.28;0.60;;;;;;;1.91;91.55;100712.22;5106574;28;20486;-71
2022/12/07 09:39:22;;;;;;;2.30;0.85;;;;;;;1.99;90.78;100705.22;5094686;28;20040;-72
2022/12/07 09:41:48;;;;;;;5.18;1.10;;;;;;;2.02;90.66;100714.69;5103719;28;20096;-72
2022/12/07 09:44:20;;;;;;;3.83;1.70;;;;;;;2.20;89.75;100712.09;5116265;28;20049;-71
2022/12/07 09:46:46;;;;;;;2.13;0.70;;;;;;;2.13;90.08;100725.13;5109423;28;20027;-72
2022/12/07 09:49:24;;;;;;;3.35;0.63;;;;;;;2.22;89.46;100716.28;5108185;28;20506;-72
2022/12/07 09:52:15;;;;;;;4.47;0.70;;;;;;;2.14;89.78;100718.84;5116484;28;20058;-72
2022/12/07 09:54:45;;;;;;;2.75;0.70;;;;;;;2.05;89.39;100674.59;5107752;28;20027;-71
2022/12/07 09:57:12;;;;;;;1.50;0.60;;;;;;;2.24;88.97;100705.50;5108019;28;20094;-72
2022/12/07 09:59:40;;;;;;;1.02;0.50;;;;;;;2.33;88.73;100708.13;5115814;28;20129;-72
2022/12/07 10:02:27;;;;;;;2.80;0.68;;;;;;;2.20;88.25;100718.25;5087009;28;20028;-72
2022/12/07 10:04:52;;;;;;;1.40;0.43;;;;;;;2.12;89.17;100726.13;5110760;28;20043;-72
2022/12/07 10:07:19;;;;;;;1.15;0.50;;;;;;;2.06;89.39;100714.25;5113509;28;20036;-72
2022/12/07 10:09:44;;;;;;;2.53;0.60;;;;;;;1.41;89.45;100636.44;5101329;28;20032;-71
2022/12/07 10:12:12;;;;;;;1.02;0.40;;;;;;;1.73;89.91;100707.69;5114286;28;20035;-71
2022/12/07 10:14:52;;;;;;;2.35;0.40;;;;;;;1.57;90.91;100715.41;5105712;28;20125;-72
2022/12/07 10:17:51;;;;;;;0.90;0.50;;;;;;;1.66;91.08;100706.59;5105043;28;20103;-72
2022/12/07 10:20:25;;;;;;;1.30;0.52;;;;;;;1.50;90.88;100687.78;5036504;28;20059;-72
2022/12/07 10:22:57;;;;;;;1.05;0.60;;;;;;;1.49;90.62;100709.94;5108790;28;20024;-72
2022/12/07 10:25:26;;;;;;;1.25;0.47;;;;;;;1.57;90.11;100707.44;5111447;28;20023;-72
2022/12/07 10:28:21;;;;;;;2.70;0.65;;;;;;;1.38;90.38;100721.56;5101247;28;20107;-72
2022/12/07 10:30:59;;;;;;;4.20;0.63;;;;;;;1.60;90.21;100715.94;5091434;28;20123;-71
2022/12/07 10:33:35;;;;;;;6.72;0.60;;;;;;;1.54;89.98;100720.97;5111306;28;20039;-72
2022/12/07 10:36:20;;;;;;;2.67;0.60;;;;;;;1.40;89.93;100714.31;5100062;28;20494;-72
2022/12/07 10:38:52;;;;;;;1.92;0.47;;;;;;;1.34;90.16;100714.88;5108448;28;20127;-72
2022/12/07 10:41:18;;;;;;;1.40;0.60;;;;;;;1.20;90.32;100710.84;5113590;28;20031;-72
2022/12/07 10:43:56;;;;;;;2.15;0.40;;;;;;;1.31;90.47;100713.34;5138339;27;20028;-72
2022/12/07 10:46:50;;;;;;;2.22;0.63;;;;;;;1.15;90.09;100710.41;5106380;28;20031;-72
2022/12/07 10:49:31;;;;;;;1.35;0.52;;;;;;;1.11;90.44;100709.03;5124481;27;20036;-71
2022/12/07 10:52:23;;;;;;;1.45;0.70;;;;;;;1.01;90.07;100697.59;5118070;28;20042;-71
2022/12/07 10:54:48;;;;;;;2.83;0.60;;;;;;;1.15;89.88;100705.13;5110968;28;20034;-71
2022/12/07 10:57:26;;;;;;;2.78;0.60;;;;;;;1.23;89.02;100705.28;5108977;28;20028;-71
2022/12/07 11:00:10;;;;;;;2.92;0.60;;;;;;;1.18;89.14;100703.03;5118315;28;20111;-72
2022/12/07 11:03:11;;;;;;;1.02;0.43;;;;;;;1.25;88.51;100705.13;5108033;28;20063;-72
2022/12/07 11:05:45;;;;;;;1.23;0.50;;;;;;;1.00;89.36;100704.72;5084709;28;20672;-71
2022/12/07 11:08:30;;;;;;;3.70;0.70;;;;;;;1.25;88.99;100697.16;5088803;28;20055;-71
2022/12/07 11:11:08;;;;;;;2.88;0.60;;;;;;;1.33;87.89;100694.66;5110194;28;20044;-72
2022/12/07 11:13:42;;;;;;;1.88;0.60;;;;;;;1.04;88.81;100692.03;5116357;28;20036;-72
2022/12/07 11:16:21;;;;;;;2.15;0.63;;;;;;;1.11;88.89;100695.78;5086849;28;20027;-72
2022/12/07 11:19:04;;;;;;;1.67;0.60;;;;;;;0.93;89.08;100691.19;5111716;28;20043;-72
2022/12/07 11:21:45;;;;;;;1.38;0.52;;;;;;;1.16;88.42;100691.75;5116158;28;20035;-72
2022/12/07 11:24:16;;;;;;;0.90;0.35;;;;;;;0.96;88.38;100694.53;5086989;28;20390;-72
2022/12/07 11:27:01;;;;;;;1.25;0.55;;;;;;;0.89;88.56;100694.25;5112658;28;20034;-72
2022/12/07 11:30:14;;;;;;;0.82;0.40;;;;;;;0.94;88.14;100692.84;5113927;28;20406;-72
2022/12/07 11:32:42;;;;;;;3.13;0.80;;;;;;;1.04;87.79;100697.31;5037533;28;20034;-72
2022/12/07 11:35:18;;;;;;;3.63;0.80;;;;;;;0.76;87.64;100651.31;5100522;28;20404;-72
2022/12/07 11:37:46;;;;;;;1.73;0.60;;;;;;;0.98;86.76;100663.44;5102397;28;20020;-72
2022/12/07 11:40:36;;;;;;;3.80;0.88;;;;;;;1.30;86.41;100685.16;5116016;28;20042;-72
2022/12/07 11:43:17;;;;;;;2.35;0.60;;;;;;;1.15;86.65;100691.88;5111761;28;20050;-72
2022/12/07 11:45:47;;;;;;;1.10;0.60;;;;;;;1.24;86.26;100695.50;5103223;28;20024;-71
2022/12/07 11:48:34;;;;;;;2.45;0.40;;;;;;;1.32;86.11;100693.78;5115045;28;20054;-72